Hoback Junction, Wyoming
Current Conditions -  °F | °C
As of 3:51 PM on Tuesday 21 Oct 2014 (Local Time) from KJAC Reporting Station
Scattered Clouds Scattered Clouds  
Wind Chill: 40°   Ceiling: Unl
Heat Index: 46°   Visibility: 10mi
Dew Point: 28°   Wind: 16mph
Humidity: 50%   Direction: 210°SSW
Pressure: 30.03"   Gusts: 24mph
Location:  43.4143°N, 110.582°W
Report Text: KJAC 212151Z 21014G21KT 10SM SCT060 08/M02 A3003
Loading
Personal Weather Stations






























Interactive Weather Map
Tropical Storm Tracking
New forecast layout! Learn more

10-Day Weather Forecast

Advertisements
Track Severe Weather on mobile